This is the latest recevied weather packets stored in our database for station/object KC9NBZ. If no packets are shown the sender has not sent any weather packets the latest 10 day(s).
| Time | Temp. | Humidity | Pressure | Rain* | Wind** | Luminosity | Snow |
|---|---|---|---|---|---|---|---|
| 1777334121 | 20° C | 81% | 998.8 hPa | 0.25 mm | - | 53 W/m² | - |
| 1777331120 | 20° C | 80% | 999 hPa | 0 mm | - | 141 W/m² | - |
| 1777329940 | 20° C | 79% | 998.9 hPa | 0 mm | - | 262 W/m² | - |
| 1777329321 | 20° C | 78% | 998.9 hPa | 0 mm | - | 146 W/m² | - |
| 1777327519 | 18.89° C | 82% | 999.7 hPa | 0 mm | - | 122 W/m² | - |
| 1777325122 | 18.33° C | 82% | 999.7 hPa | 0 mm | - | 57 W/m² | - |
| 1777322721 | 17.78° C | 83% | 999.9 hPa | 0 mm | - | 114 W/m² | - |
| 1777316123 | 14.44° C | 93% | 999.9 hPa | 0 mm | - | 248 W/m² | - |
| 1777312518 | 13.33° C | 96% | 1000.7 hPa | 3.56 mm | - | 226 W/m² | - |
| 1777311319 | 12.78° C | 97% | 999 hPa | 5.33 mm | - | 268 W/m² | - |
| 1777310722 | 12.78° C | 96% | 997.7 hPa | 6.35 mm | - | 133 W/m² | - |
| 1777310140 | 12.78° C | 95% | 1003.6 hPa | 6.86 mm | - | 76 W/m² | - |
| 1777300541 | 12.78° C | 87% | 1007.5 hPa | 0 mm | - | 166 W/m² | - |
| 1777296322 | 12.22° C | 88% | 1008.5 hPa | 0 mm | - | 59 W/m² | - |
| 1777295719 | 12.22° C | 88% | 1008.3 hPa | 0 mm | - | 100 W/m² | - |
| 1777292717 | 11.67° C | 91% | 1009.2 hPa | 0.25 mm | - | 66 W/m² | - |
| 1777292119 | 11.11° C | 91% | 1009.5 hPa | 0.25 mm | - | 72 W/m² | - |
| 1777289723 | 11.11° C | 89% | 1010.3 hPa | 0 mm | - | 10 W/m² | - |
| 1777284321 | 10.56° C | 89% | 1010.7 hPa | 0 mm | - | 0 W/m² | - |
| 1777280119 | 10.56° C | 88% | 1010.6 hPa | 0 mm | - | 0 W/m² | - |
| 1777278919 | 10.56° C | 88% | 1011.5 hPa | 0 mm | - | 0 W/m² | - |
| 1777277142 | 10.56° C | 88% | 1012.2 hPa | 0 mm | - | 0 W/m² | - |
| 1777275918 | 10.56° C | 87% | 1012.6 hPa | 0 mm | - | 0 W/m² | - |
| 1777271720 | 10.56° C | 87% | 1013.6 hPa | 0 mm | - | 0 W/m² | - |
| 1777270521 | 11.11° C | 86% | 1013.7 hPa | 0 mm | - | 0 W/m² | - |
* Rain latest hour (hover to see other rain measurements)
** Current wind speed in m/s (hover to see current wind gust speed)